createdAt,value
2022-10-20T00:02:40.646Z,12.90
2022-10-20T00:05:28.071Z,12.90
2022-10-20T00:08:15.177Z,12.90
2022-10-20T00:11:02.231Z,12.90
2022-10-20T00:13:52.180Z,12.90
2022-10-20T00:16:41.050Z,13.00
2022-10-20T00:19:28.312Z,13.00
2022-10-20T00:22:15.812Z,13.00
2022-10-20T00:25:03.213Z,13.10
2022-10-20T00:27:50.132Z,13.10
2022-10-20T00:30:37.890Z,13.20
2022-10-20T00:33:27.425Z,13.20
2022-10-20T00:36:16.466Z,13.10
2022-10-20T00:39:05.749Z,13.20
2022-10-20T00:41:52.799Z,13.20
2022-10-20T00:44:51.652Z,13.20
2022-10-20T00:47:42.279Z,13.20
2022-10-20T00:50:36.346Z,13.10
2022-10-20T00:53:25.417Z,13.10
2022-10-20T00:56:12.520Z,13.10
2022-10-20T00:58:59.338Z,13.10
2022-10-20T01:01:47.446Z,13.20
2022-10-20T01:04:38.129Z,13.20
2022-10-20T01:07:26.450Z,13.10
2022-10-20T01:10:14.218Z,13.20
2022-10-20T01:13:08.221Z,13.20
2022-10-20T01:16:05.913Z,13.20
2022-10-20T01:19:03.662Z,13.20
2022-10-20T01:22:02.769Z,13.20
2022-10-20T01:25:02.397Z,13.10
2022-10-20T01:27:55.069Z,13.10
2022-10-20T01:30:47.988Z,13.00
2022-10-20T01:33:44.103Z,13.00
2022-10-20T01:36:38.915Z,13.00
2022-10-20T01:39:31.034Z,13.00
2022-10-20T01:42:22.286Z,13.00
2022-10-20T01:45:13.997Z,13.00
2022-10-20T01:48:05.537Z,13.00
2022-10-20T01:50:53.209Z,13.00
2022-10-20T01:53:40.387Z,12.90
2022-10-20T01:56:38.697Z,12.90
2022-10-20T01:59:41.790Z,12.80
2022-10-20T02:02:53.214Z,12.80
2022-10-20T02:05:53.497Z,12.80
2022-10-20T02:08:45.629Z,12.80
2022-10-20T02:11:42.830Z,12.80
2022-10-20T02:14:33.188Z,12.80
2022-10-20T02:17:22.333Z,12.80
2022-10-20T02:20:12.650Z,12.80
2022-10-20T02:23:01.274Z,12.70
2022-10-20T02:25:50.806Z,12.80
2022-10-20T02:28:40.754Z,12.80
2022-10-20T02:31:28.763Z,12.80
2022-10-20T02:34:16.553Z,12.80
2022-10-20T02:37:05.067Z,12.80
2022-10-20T02:39:52.329Z,12.70
2022-10-20T02:42:41.117Z,12.70
2022-10-20T02:45:28.575Z,12.70
2022-10-20T02:48:15.628Z,12.70
2022-10-20T02:51:02.939Z,12.60
2022-10-20T02:53:51.197Z,12.60
2022-10-20T02:56:38.478Z,12.50
2022-10-20T02:59:25.430Z,12.50
2022-10-20T03:02:12.817Z,12.50
2022-10-20T03:05:00.219Z,12.60
2022-10-20T03:07:47.651Z,12.60
2022-10-20T03:10:37.629Z,12.60
2022-10-20T03:13:24.534Z,12.60
2022-10-20T03:16:11.602Z,12.60
2022-10-20T03:19:01.571Z,12.60
2022-10-20T03:21:51.880Z,12.60
2022-10-20T03:24:39.095Z,12.60
2022-10-20T03:27:27.489Z,12.60
2022-10-20T03:30:14.833Z,12.60
2022-10-20T03:33:01.815Z,12.70
2022-10-20T03:35:48.738Z,12.70
2022-10-20T03:38:36.037Z,12.70
2022-10-20T03:41:23.128Z,12.70
2022-10-20T03:44:12.738Z,12.70
2022-10-20T03:47:00.745Z,12.70
2022-10-20T03:49:47.689Z,12.70
2022-10-20T03:52:35.066Z,12.70
2022-10-20T03:55:22.641Z,12.70
2022-10-20T03:58:09.608Z,12.70
2022-10-20T04:00:59.629Z,12.70
2022-10-20T04:03:46.842Z,12.70
2022-10-20T04:06:34.088Z,12.70
2022-10-20T04:09:20.949Z,12.70
2022-10-20T04:12:08.032Z,12.70
2022-10-20T04:14:55.015Z,12.70
2022-10-20T04:17:43.490Z,12.70
2022-10-20T04:20:30.755Z,12.70
2022-10-20T04:23:18.113Z,12.70
2022-10-20T04:26:11.055Z,12.70
2022-10-20T04:28:58.333Z,12.70
2022-10-20T04:31:48.291Z,12.70
2022-10-20T04:34:37.918Z,12.70
2022-10-20T04:37:25.498Z,12.80
2022-10-20T04:40:13.067Z,12.80
2022-10-20T04:43:01.216Z,12.80
2022-10-20T04:45:48.247Z,12.80
2022-10-20T04:48:35.689Z,12.80
2022-10-20T04:51:23.900Z,12.80
2022-10-20T04:54:11.190Z,12.70
2022-10-20T04:56:58.427Z,12.70
2022-10-20T04:59:45.551Z,12.70
2022-10-20T05:02:32.818Z,12.70
2022-10-20T05:05:19.630Z,12.70
2022-10-20T05:08:08.133Z,12.60
2022-10-20T05:10:54.962Z,12.60
2022-10-20T05:13:43.332Z,12.60
2022-10-20T05:16:30.334Z,12.60
2022-10-20T05:19:17.703Z,12.60
2022-10-20T05:22:04.924Z,12.60
2022-10-20T05:24:53.697Z,12.60
2022-10-20T05:27:40.667Z,12.60
2022-10-20T05:30:27.917Z,12.50
2022-10-20T05:33:14.846Z,12.50
2022-10-20T05:36:02.250Z,12.50
2022-10-20T05:38:54.051Z,12.50
2022-10-20T05:41:42.742Z,12.40
2022-10-20T05:44:29.986Z,12.40
2022-10-20T05:47:17.319Z,12.40
2022-10-20T05:50:05.031Z,12.40
2022-10-20T05:52:52.201Z,12.40
2022-10-20T05:55:39.329Z,12.40
2022-10-20T05:58:27.645Z,12.30
2022-10-20T06:01:19.356Z,12.30
2022-10-20T06:04:08.676Z,12.30
2022-10-20T06:06:56.984Z,12.30
2022-10-20T06:09:44.326Z,12.30
2022-10-20T06:12:31.341Z,12.30
2022-10-20T06:15:19.953Z,12.30
2022-10-20T06:18:07.277Z,12.30
2022-10-20T06:21:02.545Z,12.30
2022-10-20T06:23:50.666Z,12.20
2022-10-20T06:26:38.077Z,12.20
2022-10-20T06:29:25.285Z,12.20
2022-10-20T06:35:01.179Z,12.20
2022-10-20T06:37:48.349Z,12.20
2022-10-20T06:40:35.776Z,12.20
2022-10-20T06:43:22.944Z,12.10
2022-10-20T06:46:13.815Z,12.10
2022-10-20T06:49:04.032Z,12.20
2022-10-20T06:51:51.373Z,12.30
2022-10-20T06:54:38.963Z,12.30
2022-10-20T06:57:25.990Z,12.30
2022-10-20T07:00:13.462Z,12.30
2022-10-20T07:03:00.552Z,12.40
2022-10-20T07:05:49.641Z,12.50
2022-10-20T07:08:38.007Z,12.50
2022-10-20T07:11:27.256Z,12.50
2022-10-20T07:14:15.166Z,12.50
2022-10-20T07:17:02.097Z,12.50
2022-10-20T07:19:49.475Z,12.50
2022-10-20T07:22:39.147Z,12.50
2022-10-20T07:25:26.787Z,12.60
2022-10-20T07:28:14.198Z,12.60
2022-10-20T07:31:05.178Z,12.60
2022-10-20T07:34:07.386Z,12.70
2022-10-20T07:37:00.917Z,12.70
2022-10-20T07:39:49.629Z,12.60
2022-10-20T07:42:37.052Z,12.70
2022-10-20T07:45:24.718Z,12.70
2022-10-20T07:48:12.046Z,12.80
2022-10-20T07:54:04.450Z,12.80
2022-10-20T07:56:53.139Z,12.80
2022-10-20T07:59:40.060Z,12.80
2022-10-20T08:02:27.371Z,12.90
2022-10-20T08:05:14.962Z,13.00
2022-10-20T08:08:02.238Z,13.00
2022-10-20T08:10:49.563Z,13.00
2022-10-20T08:13:39.672Z,13.00
2022-10-20T08:16:28.490Z,13.10
2022-10-20T08:19:19.699Z,13.00
2022-10-20T08:22:07.043Z,12.90
2022-10-20T08:24:54.465Z,12.80
2022-10-20T08:27:41.444Z,12.80
2022-10-20T08:30:30.084Z,12.80
2022-10-20T08:33:17.538Z,12.90
2022-10-20T08:36:06.069Z,13.00
2022-10-20T08:38:54.630Z,13.00
2022-10-20T08:45:01.209Z,13.20
2022-10-20T08:47:53.174Z,13.10
2022-10-20T08:50:45.964Z,13.20
2022-10-20T08:53:40.860Z,13.20
2022-10-20T08:56:30.969Z,13.30
2022-10-20T08:59:28.070Z,13.30
2022-10-20T09:02:18.259Z,13.20
2022-10-20T09:05:09.402Z,13.20
2022-10-20T09:07:56.651Z,13.10
2022-10-20T09:10:48.706Z,13.10
2022-10-20T09:13:37.859Z,13.10
2022-10-20T09:16:40.617Z,13.10
2022-10-20T09:19:31.492Z,13.20
2022-10-20T09:22:35.575Z,13.20
2022-10-20T09:25:27.657Z,13.20
2022-10-20T09:28:24.819Z,13.20
2022-10-20T09:31:23.787Z,13.10
2022-10-20T09:34:23.560Z,13.20
2022-10-20T09:37:14.568Z,13.30
2022-10-20T09:40:05.329Z,13.30
2022-10-20T09:42:57.282Z,13.40
2022-10-20T09:45:54.855Z,13.50
2022-10-20T09:48:48.202Z,13.60
2022-10-20T09:51:36.019Z,13.70
2022-10-20T09:54:26.224Z,13.80
2022-10-20T09:57:19.947Z,13.80
2022-10-20T10:00:19.113Z,13.90
2022-10-20T10:03:21.479Z,14.00
2022-10-20T10:06:28.078Z,14.00
2022-10-20T10:09:34.356Z,14.10
2022-10-20T10:12:25.797Z,14.20
2022-10-20T10:15:28.652Z,14.30
2022-10-20T10:18:24.346Z,14.50
2022-10-20T10:21:15.537Z,14.60
2022-10-20T10:24:04.969Z,14.80
2022-10-20T10:26:56.959Z,14.90
2022-10-20T10:29:45.760Z,15.00
2022-10-20T10:32:32.953Z,15.10
2022-10-20T10:35:26.799Z,15.30
2022-10-20T10:38:14.898Z,15.40
2022-10-20T10:41:10.435Z,15.70
2022-10-20T10:44:06.324Z,15.90
2022-10-20T10:47:04.335Z,16.20
2022-10-20T10:50:04.043Z,16.30
2022-10-20T10:53:02.301Z,16.50
2022-10-20T10:55:58.810Z,16.60
2022-10-20T10:58:50.836Z,16.70
2022-10-20T11:02:01.819Z,16.80
2022-10-20T11:08:15.736Z,16.90
2022-10-20T11:11:15.540Z,17.00
2022-10-20T11:14:17.217Z,17.10
2022-10-20T11:17:22.810Z,17.10
2022-10-20T11:20:25.542Z,17.20
2022-10-20T11:23:43.446Z,17.10
2022-10-20T11:26:30.431Z,17.00
2022-10-20T11:29:26.533Z,17.00
2022-10-20T11:32:22.439Z,17.00
2022-10-20T11:35:19.733Z,17.10
2022-10-20T11:38:16.614Z,17.10
2022-10-20T11:41:08.479Z,17.30
2022-10-20T11:44:00.616Z,17.40
2022-10-20T11:46:52.786Z,17.50
2022-10-20T11:49:42.387Z,17.60
2022-10-20T11:53:02.087Z,17.70
2022-10-20T11:56:11.765Z,17.80
2022-10-20T11:59:14.844Z,17.80
2022-10-20T12:02:28.211Z,18.00
2022-10-20T12:05:37.583Z,18.00
2022-10-20T12:08:44.766Z,18.10
2022-10-20T12:11:39.184Z,18.20
2022-10-20T12:14:33.255Z,18.40
2022-10-20T12:17:30.444Z,18.40
2022-10-20T12:20:47.110Z,18.50
2022-10-20T12:24:02.768Z,18.60
2022-10-20T12:27:18.134Z,18.70
2022-10-20T12:30:44.295Z,18.70
2022-10-20T12:34:01.181Z,18.80
2022-10-20T12:36:48.006Z,18.80
2022-10-20T12:39:35.176Z,18.90
2022-10-20T12:42:29.117Z,19.00
2022-10-20T12:45:31.158Z,19.10
2022-10-20T12:48:24.332Z,19.20
2022-10-20T12:51:22.581Z,19.20
2022-10-20T12:54:23.178Z,19.30
2022-10-20T13:00:08.019Z,19.40
2022-10-20T13:02:56.345Z,19.40
2022-10-20T13:05:48.128Z,19.50
2022-10-20T13:08:37.439Z,19.50
2022-10-20T13:11:44.688Z,19.60
2022-10-20T13:14:37.544Z,19.60
2022-10-20T13:17:36.415Z,19.60
2022-10-20T13:20:30.935Z,19.70
2022-10-20T13:23:23.178Z,19.60
2022-10-20T13:26:17.928Z,19.60
2022-10-20T13:29:14.434Z,19.60
2022-10-20T13:32:13.420Z,19.60
2022-10-20T13:35:09.308Z,19.60
2022-10-20T13:38:01.602Z,19.60
2022-10-20T13:43:57.820Z,19.60
2022-10-20T13:46:57.147Z,19.60
2022-10-20T13:49:57.274Z,19.60
2022-10-20T13:52:50.556Z,19.60
2022-10-20T13:55:55.786Z,19.50
2022-10-20T13:58:44.142Z,19.40
2022-10-20T14:01:32.767Z,19.40
2022-10-20T14:04:26.579Z,19.50
2022-10-20T14:07:16.050Z,19.50
2022-10-20T14:10:05.749Z,19.50
2022-10-20T14:12:54.211Z,19.50
2022-10-20T14:15:47.289Z,19.60
2022-10-20T14:18:39.046Z,19.60
2022-10-20T14:21:28.964Z,19.70
2022-10-20T14:24:32.176Z,19.70
2022-10-20T14:27:23.133Z,19.80
2022-10-20T14:30:16.928Z,19.80
2022-10-20T14:33:04.054Z,19.80
2022-10-20T14:35:55.157Z,19.80
2022-10-20T14:38:47.958Z,19.90
2022-10-20T14:41:37.577Z,19.90
2022-10-20T14:44:31.333Z,19.80
2022-10-20T14:47:21.261Z,19.80
2022-10-20T14:50:20.000Z,19.80
2022-10-20T14:53:31.025Z,19.70
2022-10-20T14:56:23.630Z,19.60
2022-10-20T14:59:16.793Z,19.40
2022-10-20T15:02:12.448Z,19.40
2022-10-20T15:05:22.196Z,19.40
2022-10-20T15:08:17.958Z,19.40
2022-10-20T15:11:19.435Z,19.30
2022-10-20T15:14:17.367Z,19.30
2022-10-20T15:17:05.875Z,19.20
2022-10-20T15:19:53.087Z,19.10
2022-10-20T15:22:40.399Z,18.90
2022-10-20T15:25:28.597Z,18.80
2022-10-20T15:28:31.847Z,18.60
2022-10-20T15:31:23.475Z,18.50
2022-10-20T15:34:12.770Z,18.30
2022-10-20T15:37:00.161Z,18.10
2022-10-20T15:39:47.550Z,18.00
2022-10-20T15:42:34.743Z,17.90
2022-10-20T15:45:25.944Z,17.70
2022-10-20T15:48:13.153Z,17.70
2022-10-20T15:51:01.805Z,17.60
2022-10-20T15:53:50.456Z,17.50
2022-10-20T15:56:38.716Z,17.40
2022-10-20T15:59:26.738Z,17.30
2022-10-20T16:02:14.215Z,17.20
2022-10-20T16:05:01.007Z,17.10
2022-10-20T16:07:49.540Z,17.00
2022-10-20T16:10:36.751Z,17.00
2022-10-20T16:13:23.892Z,17.00
2022-10-20T16:16:15.445Z,17.00
2022-10-20T16:19:03.339Z,17.00
2022-10-20T16:21:50.349Z,16.90
2022-10-20T16:24:38.814Z,16.80
2022-10-20T16:27:26.414Z,16.80
2022-10-20T16:30:13.952Z,16.80
2022-10-20T16:33:01.084Z,16.70
2022-10-20T16:35:48.082Z,16.70
2022-10-20T16:38:39.129Z,16.70
2022-10-20T16:41:29.295Z,16.60
2022-10-20T16:44:16.577Z,16.60
2022-10-20T16:47:04.030Z,16.50
2022-10-20T16:49:50.928Z,16.50
2022-10-20T16:52:38.080Z,16.40
2022-10-20T16:55:25.188Z,16.40
2022-10-20T16:58:13.888Z,16.30
2022-10-20T17:01:04.025Z,16.30
2022-10-20T17:03:53.638Z,16.20
2022-10-20T17:06:40.972Z,16.10
2022-10-20T17:09:30.066Z,16.10
2022-10-20T17:12:17.459Z,16.10
2022-10-20T17:15:06.137Z,16.10
2022-10-20T17:17:53.237Z,16.10
2022-10-20T17:20:40.331Z,16.10
2022-10-20T17:23:28.277Z,16.10
2022-10-20T17:26:30.948Z,16.10
2022-10-20T17:29:20.111Z,16.10
2022-10-20T17:32:14.516Z,16.10
2022-10-20T17:35:04.778Z,16.10
2022-10-20T17:37:52.058Z,16.00
2022-10-20T17:40:39.460Z,16.00
2022-10-20T17:43:26.559Z,16.00
2022-10-20T17:46:16.620Z,16.00
2022-10-20T17:49:04.971Z,16.00
2022-10-20T17:51:52.349Z,19.20
2022-10-20T17:54:39.751Z,15.90
2022-10-20T17:57:27.154Z,15.90
2022-10-20T18:00:22.587Z,15.90
2022-10-20T18:03:14.837Z,15.90
2022-10-20T18:06:08.714Z,15.80
2022-10-20T18:08:56.770Z,15.70
2022-10-20T18:11:46.542Z,15.60
2022-10-20T18:14:33.896Z,15.60
2022-10-20T18:17:21.329Z,15.50
2022-10-20T18:20:08.969Z,15.40
2022-10-20T18:22:57.425Z,15.50
2022-10-20T18:25:44.404Z,15.50
2022-10-20T18:28:31.980Z,15.50
2022-10-20T18:31:22.220Z,15.50
2022-10-20T18:34:12.723Z,15.50
2022-10-20T18:37:03.698Z,15.50
2022-10-20T18:39:52.051Z,15.60
2022-10-20T18:42:39.400Z,15.50
2022-10-20T18:45:26.805Z,15.50
2022-10-20T18:48:13.997Z,15.50
2022-10-20T18:51:02.303Z,15.60
2022-10-20T18:53:49.388Z,15.60
2022-10-20T18:56:38.074Z,15.50
2022-10-20T18:59:25.538Z,15.50
2022-10-20T19:02:12.866Z,15.50
2022-10-20T19:05:00.087Z,15.50
2022-10-20T19:07:46.960Z,15.40
2022-10-20T19:10:34.209Z,15.40
2022-10-20T19:13:22.685Z,15.30
2022-10-20T19:16:12.625Z,15.30
2022-10-20T19:19:01.987Z,15.30
2022-10-20T19:21:49.400Z,15.40
2022-10-20T19:24:39.949Z,15.40
2022-10-20T19:27:27.737Z,15.30
2022-10-20T19:30:16.471Z,15.30
2022-10-20T19:33:03.522Z,15.30
2022-10-20T19:35:51.027Z,15.30
2022-10-20T19:38:37.996Z,15.20
2022-10-20T19:41:26.057Z,15.20
2022-10-20T19:44:15.647Z,15.10
2022-10-20T19:47:05.406Z,15.10
2022-10-20T19:49:52.657Z,15.00
2022-10-20T19:52:40.129Z,15.00
2022-10-20T19:55:27.697Z,15.00
2022-10-20T19:58:15.222Z,15.00
2022-10-20T20:01:02.603Z,15.00
2022-10-20T20:03:51.121Z,15.00
2022-10-20T20:06:38.229Z,15.00
2022-10-20T20:09:29.411Z,15.10
2022-10-20T20:12:16.208Z,15.10
2022-10-20T20:15:03.469Z,15.00
2022-10-20T20:17:50.442Z,15.00
2022-10-20T20:20:40.474Z,15.00
2022-10-20T20:23:40.716Z,15.00
2022-10-20T20:26:37.671Z,15.00
2022-10-20T20:29:26.668Z,15.00
2022-10-20T20:32:14.314Z,15.00
2022-10-20T20:35:01.600Z,14.90
2022-10-20T20:37:50.086Z,14.90
2022-10-20T20:40:37.081Z,14.90
2022-10-20T20:43:24.257Z,14.80
2022-10-20T20:46:15.889Z,14.80
2022-10-20T20:49:03.627Z,14.80
2022-10-20T20:51:50.837Z,14.80
2022-10-20T20:54:39.208Z,14.70
2022-10-20T20:57:26.724Z,14.70
2022-10-20T21:00:14.609Z,14.60
2022-10-20T21:03:01.951Z,14.50
2022-10-20T21:05:48.843Z,14.50
2022-10-20T21:08:36.247Z,14.40
2022-10-20T21:11:26.992Z,14.40
2022-10-20T21:14:14.322Z,14.40
2022-10-20T21:17:02.128Z,14.30
2022-10-20T21:19:49.382Z,14.20
2022-10-20T21:22:36.697Z,14.20
2022-10-20T21:25:24.355Z,14.20
2022-10-20T21:28:12.722Z,14.20
2022-10-20T21:31:00.981Z,14.10
2022-10-20T21:33:51.985Z,14.10
2022-10-20T21:36:40.240Z,14.00
2022-10-20T21:39:27.309Z,14.10
2022-10-20T21:42:14.496Z,14.00
2022-10-20T21:45:02.882Z,14.00
2022-10-20T21:47:49.887Z,14.00
2022-10-20T21:50:37.849Z,14.00
2022-10-20T21:53:25.243Z,14.00
2022-10-20T21:56:12.630Z,14.00
2022-10-20T21:58:59.608Z,14.00
2022-10-20T22:01:49.494Z,14.00
2022-10-20T22:04:36.521Z,14.10
2022-10-20T22:07:24.002Z,14.00
2022-10-20T22:10:11.430Z,14.10
2022-10-20T22:12:58.456Z,14.00
2022-10-20T22:15:45.683Z,14.10
2022-10-20T22:18:34.705Z,14.10
2022-10-20T22:21:22.004Z,14.10
2022-10-20T22:24:09.293Z,14.10
2022-10-20T22:26:56.468Z,14.10
2022-10-20T22:29:43.748Z,14.10
2022-10-20T22:32:30.703Z,14.10
2022-10-20T22:35:18.846Z,14.00
2022-10-20T22:38:05.931Z,14.00
2022-10-20T22:40:53.056Z,14.00
2022-10-20T22:43:40.377Z,14.00
2022-10-20T22:46:27.611Z,14.00
2022-10-20T22:49:15.318Z,13.90
2022-10-20T22:52:03.863Z,14.00
2022-10-20T22:54:51.040Z,14.00
2022-10-20T22:57:37.960Z,14.00
2022-10-20T23:00:25.207Z,14.00
2022-10-20T23:03:12.678Z,14.00
2022-10-20T23:05:59.963Z,14.00
2022-10-20T23:08:50.748Z,14.00
2022-10-20T23:11:38.012Z,14.00
2022-10-20T23:14:25.115Z,14.00
2022-10-20T23:17:12.326Z,14.00
2022-10-20T23:19:59.506Z,14.00
2022-10-20T23:22:48.461Z,14.00
2022-10-20T23:25:40.531Z,14.10
2022-10-20T23:28:27.386Z,14.00
2022-10-20T23:31:16.629Z,14.00
2022-10-20T23:34:03.849Z,14.10
2022-10-20T23:36:51.170Z,14.10
2022-10-20T23:39:38.253Z,14.10
2022-10-20T23:42:26.768Z,14.10
2022-10-20T23:45:13.960Z,14.10
2022-10-20T23:48:01.055Z,14.10
2022-10-20T23:50:48.502Z,14.10
2022-10-20T23:53:36.142Z,14.10
2022-10-20T23:56:23.352Z,14.10
2022-10-20T23:59:11.748Z,14.10
